Terminal Aerodrome Forecast
Issued by NWS

Home | Current Version | Previous Version | Text Only | Print | Product List | Glossary On
Versions: 1 2 3 4 5 6 7 8 9 10 11 12 13 14 15 16 17 18 19 20 21
000
FTUS43 KGRR 300359 AAB
TAFLAN
TAF AMD
KLAN 300359Z 3004/3024 05012KT P6SM -RA OVC007
      TEMPO 3004/3006 2SM -RA BR
     FM301000 06012KT 5SM -RA BR OVC005=

USA.gov is the U.S. government's official web portal to all federal, state and local government web resources and services.